Česky Dansk Deutsch English Español Suomi Français Magyar Italiano Nederlands norsk Polski Português svenska Türkçe

 

Weather

Szczecin (Poland)

14:30, 21 August 2016 (GMT)

NWNNE
WE
SWSSE
Home            
Szczecin Heringsdorf Trollenhagen Berlin-Tegel Berlin-Tempelhof Koszalin Berlin-Schoenefeld Wittstock Laage Zielona Gora Cottbus Flugplatz Poznan Roenne Mecklenburg-Vorpommern, Parchim Preschen Slupsk Holzdorf Magdeburg, Sachsen-Anhalt Maribo Lufthavn Malmo / Sturup Dresden-Klotzsche Luebeck-Blankensee Avno Danish Air Force Base

To put a weather button on your web site or blog, copy the code below and paste it into your page . The first box contains HTML code, the second UBB code.


Add to Google

Details

Wind speed:1 bf, 3 kn, 1.5 m/s, 3.5 miles/h, 5.6 km/h
Wind direction:Variable
Visibility:Greater than 10000 m, 10 km, 32800 ft, 6.2 miles
Clouds:A few clouds at 3600 ft, 1097 m
Temperature:22°C, 72°F
Feels like:24°C, 76°F
Dew-point:14°C, 57°F
Atmospheric pressure:1015 hPa, 761.3 mmHg, 29.97 inHg, 1.002 atm
Relative humidity:60.5 %
METAR:EPSC 211430Z VRB03KT 9999 FEW036 22/14 Q1015

Shortcuts

An up-to-date overview of weather conditions all over the world. Add locations with the plus (+) sign. These shortcuts can be added to Google.

Lid van de Technetium groep

website free tracking
StatCounter NetStat W3C Validator

27-09-2022 10:39:45
astro.technetium.be money.technetium.be phote.technetium.be tafeltennistafel.technetium.be www.ligfiets.net